sensor_id;sensor_type;location;lat;lon;timestamp;temperature;humidity
13598;DHT22;38563;54.258;12.574;2022-07-03T00:02:26;16.20;99.90
13598;DHT22;38563;54.258;12.574;2022-07-03T00:04:53;16.20;99.90
13598;DHT22;38563;54.258;12.574;2022-07-03T00:07:19;16.20;99.90
13598;DHT22;38563;54.258;12.574;2022-07-03T00:09:48;16.20;99.90
13598;DHT22;38563;54.258;12.574;2022-07-03T00:12:15;16.20;99.90
13598;DHT22;38563;54.258;12.574;2022-07-03T00:14:42;16.10;99.90
13598;DHT22;38563;54.258;12.574;2022-07-03T00:17:08;16.10;99.90
13598;DHT22;38563;54.258;12.574;2022-07-03T00:19:35;16.00;99.90
13598;DHT22;38563;54.258;12.574;2022-07-03T00:22:03;16.00;99.90
13598;DHT22;38563;54.258;12.574;2022-07-03T00:24:33;16.00;99.90
13598;DHT22;38563;54.258;12.574;2022-07-03T00:27:08;15.90;99.90
13598;DHT22;38563;54.258;12.574;2022-07-03T00:29:37;15.90;99.90
13598;DHT22;38563;54.258;12.574;2022-07-03T00:32:06;15.90;99.90
13598;DHT22;38563;54.258;12.574;2022-07-03T00:34:34;15.80;99.90
13598;DHT22;38563;54.258;12.574;2022-07-03T00:37:02;15.80;99.90
13598;DHT22;38563;54.258;12.574;2022-07-03T00:39:28;15.80;99.90
13598;DHT22;38563;54.258;12.574;2022-07-03T00:42:03;15.80;99.90
13598;DHT22;38563;54.258;12.574;2022-07-03T00:44:34;15.80;99.90
13598;DHT22;38563;54.258;12.574;2022-07-03T00:47:03;15.80;99.90
13598;DHT22;38563;54.258;12.574;2022-07-03T00:49:31;15.70;99.90
13598;DHT22;38563;54.258;12.574;2022-07-03T00:52:03;15.70;99.90
13598;DHT22;38563;54.258;12.574;2022-07-03T00:54:33;15.70;99.90
13598;DHT22;38563;54.258;12.574;2022-07-03T00:57:01;15.70;99.90
13598;DHT22;38563;54.258;12.574;2022-07-03T00:59:28;15.70;99.90
13598;DHT22;38563;54.258;12.574;2022-07-03T01:02:03;15.70;99.90
13598;DHT22;38563;54.258;12.574;2022-07-03T01:04:38;15.60;99.90
13598;DHT22;38563;54.258;12.574;2022-07-03T01:07:07;15.60;99.90
13598;DHT22;38563;54.258;12.574;2022-07-03T01:09:47;15.60;99.90
13598;DHT22;38563;54.258;12.574;2022-07-03T01:12:23;15.60;99.90
13598;DHT22;38563;54.258;12.574;2022-07-03T01:15:05;15.50;99.90
13598;DHT22;38563;54.258;12.574;2022-07-03T01:17:39;15.50;99.90
13598;DHT22;38563;54.258;12.574;2022-07-03T01:20:09;15.40;99.90
13598;DHT22;38563;54.258;12.574;2022-07-03T01:22:42;15.40;99.90
13598;DHT22;38563;54.258;12.574;2022-07-03T01:25:17;15.40;99.90
13598;DHT22;38563;54.258;12.574;2022-07-03T01:27:58;15.40;99.90
13598;DHT22;38563;54.258;12.574;2022-07-03T01:30:27;15.30;99.90
13598;DHT22;38563;54.258;12.574;2022-07-03T01:32:59;15.30;99.90
13598;DHT22;38563;54.258;12.574;2022-07-03T01:35:32;15.20;99.90
13598;DHT22;38563;54.258;12.574;2022-07-03T01:38:02;15.20;99.90
13598;DHT22;38563;54.258;12.574;2022-07-03T01:40:32;15.10;99.90
13598;DHT22;38563;54.258;12.574;2022-07-03T01:43:03;15.10;99.90
13598;DHT22;38563;54.258;12.574;2022-07-03T01:45:31;15.00;99.90
13598;DHT22;38563;54.258;12.574;2022-07-03T01:48:00;15.00;99.90
13598;DHT22;38563;54.258;12.574;2022-07-03T01:50:28;15.00;99.90
13598;DHT22;38563;54.258;12.574;2022-07-03T01:52:56;15.00;99.90
13598;DHT22;38563;54.258;12.574;2022-07-03T01:55:28;15.00;99.90
13598;DHT22;38563;54.258;12.574;2022-07-03T01:57:56;15.00;99.90
13598;DHT22;38563;54.258;12.574;2022-07-03T02:00:24;15.10;99.90
13598;DHT22;38563;54.258;12.574;2022-07-03T02:02:56;15.10;99.90
13598;DHT22;38563;54.258;12.574;2022-07-03T02:05:33;15.20;99.90
13598;DHT22;38563;54.258;12.574;2022-07-03T02:08:06;15.20;99.90
13598;DHT22;38563;54.258;12.574;2022-07-03T02:10:40;15.20;99.90
13598;DHT22;38563;54.258;12.574;2022-07-03T02:13:15;15.20;99.90
13598;DHT22;38563;54.258;12.574;2022-07-03T02:15:49;15.30;99.90
13598;DHT22;38563;54.258;12.574;2022-07-03T02:18:29;15.20;99.90
13598;DHT22;38563;54.258;12.574;2022-07-03T02:21:07;15.20;99.90
13598;DHT22;38563;54.258;12.574;2022-07-03T02:23:42;15.20;99.90
13598;DHT22;38563;54.258;12.574;2022-07-03T02:26:15;15.20;99.90
13598;DHT22;38563;54.258;12.574;2022-07-03T02:28:58;15.20;99.90
13598;DHT22;38563;54.258;12.574;2022-07-03T02:31:27;15.20;99.90
13598;DHT22;38563;54.258;12.574;2022-07-03T02:33:56;15.20;99.90
13598;DHT22;38563;54.258;12.574;2022-07-03T02:36:27;15.20;99.90
13598;DHT22;38563;54.258;12.574;2022-07-03T02:38:56;15.20;99.90
13598;DHT22;38563;54.258;12.574;2022-07-03T02:41:27;15.20;99.90
13598;DHT22;38563;54.258;12.574;2022-07-03T02:43:59;15.20;99.90
13598;DHT22;38563;54.258;12.574;2022-07-03T02:46:36;15.10;99.90
13598;DHT22;38563;54.258;12.574;2022-07-03T02:49:24;15.20;99.90
13598;DHT22;38563;54.258;12.574;2022-07-03T02:51:57;15.20;99.90
13598;DHT22;38563;54.258;12.574;2022-07-03T02:54:26;15.20;99.90
13598;DHT22;38563;54.258;12.574;2022-07-03T02:57:00;15.20;99.90
13598;DHT22;38563;54.258;12.574;2022-07-03T02:59:45;15.30;99.90
13598;DHT22;38563;54.258;12.574;2022-07-03T03:02:40;15.30;99.90
13598;DHT22;38563;54.258;12.574;2022-07-03T03:05:15;15.30;99.90
13598;DHT22;38563;54.258;12.574;2022-07-03T03:10:39;15.30;99.90
13598;DHT22;38563;54.258;12.574;2022-07-03T03:13:08;15.30;99.90
13598;DHT22;38563;54.258;12.574;2022-07-03T03:15:36;15.30;99.90
13598;DHT22;38563;54.258;12.574;2022-07-03T03:18:06;15.30;99.90
13598;DHT22;38563;54.258;12.574;2022-07-03T03:20:34;15.30;99.90
13598;DHT22;38563;54.258;12.574;2022-07-03T03:23:18;15.30;99.90
13598;DHT22;38563;54.258;12.574;2022-07-03T03:25:50;15.30;99.90
13598;DHT22;38563;54.258;12.574;2022-07-03T03:28:18;15.30;99.90
13598;DHT22;38563;54.258;12.574;2022-07-03T03:30:45;15.40;99.90
13598;DHT22;38563;54.258;12.574;2022-07-03T03:33:13;15.40;99.90
13598;DHT22;38563;54.258;12.574;2022-07-03T03:35:40;15.40;99.90
13598;DHT22;38563;54.258;12.574;2022-07-03T03:38:07;15.50;99.90
13598;DHT22;38563;54.258;12.574;2022-07-03T03:40:34;15.50;99.90
13598;DHT22;38563;54.258;12.574;2022-07-03T03:43:02;15.50;99.90
13598;DHT22;38563;54.258;12.574;2022-07-03T03:45:28;15.60;99.90
13598;DHT22;38563;54.258;12.574;2022-07-03T03:47:55;15.60;99.90
13598;DHT22;38563;54.258;12.574;2022-07-03T03:50:23;15.70;99.90
13598;DHT22;38563;54.258;12.574;2022-07-03T03:52:50;15.80;99.90
13598;DHT22;38563;54.258;12.574;2022-07-03T03:55:17;16.00;99.90
13598;DHT22;38563;54.258;12.574;2022-07-03T03:57:44;16.20;99.90
13598;DHT22;38563;54.258;12.574;2022-07-03T04:00:12;16.20;99.90
13598;DHT22;38563;54.258;12.574;2022-07-03T04:02:38;16.30;99.90
13598;DHT22;38563;54.258;12.574;2022-07-03T04:05:06;16.40;99.90
13598;DHT22;38563;54.258;12.574;2022-07-03T04:07:34;16.40;99.90
13598;DHT22;38563;54.258;12.574;2022-07-03T04:10:01;16.40;99.90
13598;DHT22;38563;54.258;12.574;2022-07-03T04:12:27;16.40;99.90
13598;DHT22;38563;54.258;12.574;2022-07-03T04:14:57;16.50;99.90
13598;DHT22;38563;54.258;12.574;2022-07-03T04:17:24;16.50;99.90
13598;DHT22;38563;54.258;12.574;2022-07-03T04:19:50;16.60;99.90
13598;DHT22;38563;54.258;12.574;2022-07-03T04:22:17;16.70;99.90
13598;DHT22;38563;54.258;12.574;2022-07-03T04:24:45;16.80;99.90
13598;DHT22;38563;54.258;12.574;2022-07-03T04:27:12;16.90;99.90
13598;DHT22;38563;54.258;12.574;2022-07-03T04:29:38;16.90;99.90
13598;DHT22;38563;54.258;12.574;2022-07-03T04:32:06;16.90;99.90
13598;DHT22;38563;54.258;12.574;2022-07-03T04:34:33;17.10;99.90
13598;DHT22;38563;54.258;12.574;2022-07-03T04:36:59;17.20;99.90
13598;DHT22;38563;54.258;12.574;2022-07-03T04:39:26;17.40;99.90
13598;DHT22;38563;54.258;12.574;2022-07-03T04:41:54;17.60;99.90
13598;DHT22;38563;54.258;12.574;2022-07-03T04:44:21;17.70;99.90
13598;DHT22;38563;54.258;12.574;2022-07-03T04:46:48;17.70;99.90
13598;DHT22;38563;54.258;12.574;2022-07-03T04:49:14;17.70;99.90
13598;DHT22;38563;54.258;12.574;2022-07-03T04:51:41;17.70;99.90
13598;DHT22;38563;54.258;12.574;2022-07-03T04:54:08;17.80;99.90
13598;DHT22;38563;54.258;12.574;2022-07-03T04:56:35;18.00;99.90
13598;DHT22;38563;54.258;12.574;2022-07-03T04:59:03;18.10;99.90
13598;DHT22;38563;54.258;12.574;2022-07-03T05:01:29;18.30;99.90
13598;DHT22;38563;54.258;12.574;2022-07-03T05:03:56;18.40;99.90
13598;DHT22;38563;54.258;12.574;2022-07-03T05:06:23;18.60;99.90
13598;DHT22;38563;54.258;12.574;2022-07-03T05:08:49;18.70;99.90
13598;DHT22;38563;54.258;12.574;2022-07-03T05:11:16;18.90;99.90
13598;DHT22;38563;54.258;12.574;2022-07-03T05:13:43;19.00;99.90
13598;DHT22;38563;54.258;12.574;2022-07-03T05:16:11;19.00;99.90
13598;DHT22;38563;54.258;12.574;2022-07-03T05:18:38;19.00;99.90
13598;DHT22;38563;54.258;12.574;2022-07-03T05:21:04;19.00;99.90
13598;DHT22;38563;54.258;12.574;2022-07-03T05:23:31;18.90;99.90
13598;DHT22;38563;54.258;12.574;2022-07-03T05:25:58;19.00;99.90
13598;DHT22;38563;54.258;12.574;2022-07-03T05:28:25;19.10;99.90
13598;DHT22;38563;54.258;12.574;2022-07-03T05:30:51;19.20;99.90
13598;DHT22;38563;54.258;12.574;2022-07-03T05:33:19;19.30;99.90
13598;DHT22;38563;54.258;12.574;2022-07-03T05:35:46;19.50;99.90
13598;DHT22;38563;54.258;12.574;2022-07-03T05:38:13;19.70;99.90
13598;DHT22;38563;54.258;12.574;2022-07-03T05:41:00;19.80;99.90
13598;DHT22;38563;54.258;12.574;2022-07-03T05:43:26;20.00;99.90
13598;DHT22;38563;54.258;12.574;2022-07-03T05:45:53;20.20;99.90
13598;DHT22;38563;54.258;12.574;2022-07-03T05:48:21;20.40;99.90
13598;DHT22;38563;54.258;12.574;2022-07-03T05:50:48;20.50;99.90
13598;DHT22;38563;54.258;12.574;2022-07-03T05:53:14;20.60;99.90
13598;DHT22;38563;54.258;12.574;2022-07-03T05:55:41;20.60;99.90
13598;DHT22;38563;54.258;12.574;2022-07-03T05:58:08;20.50;99.90
13598;DHT22;38563;54.258;12.574;2022-07-03T06:00:35;20.20;99.90
13598;DHT22;38563;54.258;12.574;2022-07-03T06:03:02;20.10;99.90
13598;DHT22;38563;54.258;12.574;2022-07-03T06:05:30;20.00;99.90
13598;DHT22;38563;54.258;12.574;2022-07-03T06:07:58;19.90;99.90
13598;DHT22;38563;54.258;12.574;2022-07-03T06:10:25;19.80;99.90
13598;DHT22;38563;54.258;12.574;2022-07-03T06:12:51;19.60;99.90
13598;DHT22;38563;54.258;12.574;2022-07-03T06:15:18;19.50;99.90
13598;DHT22;38563;54.258;12.574;2022-07-03T06:17:45;19.40;99.90
13598;DHT22;38563;54.258;12.574;2022-07-03T06:20:12;19.40;99.90
13598;DHT22;38563;54.258;12.574;2022-07-03T06:22:40;19.40;99.90
13598;DHT22;38563;54.258;12.574;2022-07-03T06:25:07;19.40;99.90
13598;DHT22;38563;54.258;12.574;2022-07-03T06:27:34;19.30;99.90
13598;DHT22;38563;54.258;12.574;2022-07-03T06:30:02;19.40;99.90
13598;DHT22;38563;54.258;12.574;2022-07-03T06:32:29;19.50;99.90
13598;DHT22;38563;54.258;12.574;2022-07-03T06:34:55;19.90;99.90
13598;DHT22;38563;54.258;12.574;2022-07-03T06:37:22;20.10;99.90
13598;DHT22;38563;54.258;12.574;2022-07-03T06:39:50;20.20;99.90
13598;DHT22;38563;54.258;12.574;2022-07-03T06:42:17;20.20;99.90
13598;DHT22;38563;54.258;12.574;2022-07-03T06:44:46;20.30;99.90
13598;DHT22;38563;54.258;12.574;2022-07-03T06:47:13;20.30;99.90
13598;DHT22;38563;54.258;12.574;2022-07-03T06:49:40;20.30;99.90
13598;DHT22;38563;54.258;12.574;2022-07-03T06:52:08;20.40;99.90
13598;DHT22;38563;54.258;12.574;2022-07-03T06:54:35;20.60;99.90
13598;DHT22;38563;54.258;12.574;2022-07-03T06:57:05;20.80;99.90
13598;DHT22;38563;54.258;12.574;2022-07-03T06:59:31;20.90;99.90
13598;DHT22;38563;54.258;12.574;2022-07-03T07:01:58;21.00;99.90
13598;DHT22;38563;54.258;12.574;2022-07-03T07:04:25;21.10;99.90
13598;DHT22;38563;54.258;12.574;2022-07-03T07:06:51;21.20;99.90
13598;DHT22;38563;54.258;12.574;2022-07-03T07:09:18;21.20;99.90
13598;DHT22;38563;54.258;12.574;2022-07-03T07:11:45;21.40;99.90
13598;DHT22;38563;54.258;12.574;2022-07-03T07:14:13;21.50;99.90
13598;DHT22;38563;54.258;12.574;2022-07-03T07:16:39;21.60;99.90
13598;DHT22;38563;54.258;12.574;2022-07-03T07:19:06;21.70;99.90
13598;DHT22;38563;54.258;12.574;2022-07-03T07:21:33;21.80;99.90
13598;DHT22;38563;54.258;12.574;2022-07-03T07:23:59;22.00;99.90
13598;DHT22;38563;54.258;12.574;2022-07-03T07:26:26;22.30;99.90
13598;DHT22;38563;54.258;12.574;2022-07-03T07:28:53;22.50;99.90
13598;DHT22;38563;54.258;12.574;2022-07-03T07:31:21;22.50;99.90
13598;DHT22;38563;54.258;12.574;2022-07-03T07:33:47;22.50;99.90
13598;DHT22;38563;54.258;12.574;2022-07-03T07:36:14;22.70;99.90
13598;DHT22;38563;54.258;12.574;2022-07-03T07:38:41;23.00;99.90
13598;DHT22;38563;54.258;12.574;2022-07-03T07:41:08;23.20;99.90
13598;DHT22;38563;54.258;12.574;2022-07-03T07:43:35;23.30;99.90
13598;DHT22;38563;54.258;12.574;2022-07-03T07:46:02;23.40;99.90
13598;DHT22;38563;54.258;12.574;2022-07-03T07:48:30;23.60;99.90
13598;DHT22;38563;54.258;12.574;2022-07-03T07:50:56;23.70;99.90
13598;DHT22;38563;54.258;12.574;2022-07-03T07:53:23;23.80;99.90
13598;DHT22;38563;54.258;12.574;2022-07-03T07:55:50;23.60;99.90
13598;DHT22;38563;54.258;12.574;2022-07-03T07:58:16;23.40;99.90
13598;DHT22;38563;54.258;12.574;2022-07-03T08:00:43;23.30;99.90
13598;DHT22;38563;54.258;12.574;2022-07-03T08:03:24;23.80;99.90
13598;DHT22;38563;54.258;12.574;2022-07-03T08:06:10;24.80;99.90
13598;DHT22;38563;54.258;12.574;2022-07-03T08:08:37;25.70;99.90
13598;DHT22;38563;54.258;12.574;2022-07-03T08:11:04;26.40;99.90
13598;DHT22;38563;54.258;12.574;2022-07-03T08:13:30;26.80;99.90
13598;DHT22;38563;54.258;12.574;2022-07-03T08:15:57;27.30;99.90
13598;DHT22;38563;54.258;12.574;2022-07-03T08:18:25;27.60;99.90
13598;DHT22;38563;54.258;12.574;2022-07-03T08:20:51;27.50;99.90
13598;DHT22;38563;54.258;12.574;2022-07-03T08:23:19;27.70;99.90
13598;DHT22;38563;54.258;12.574;2022-07-03T08:25:46;27.70;99.90
13598;DHT22;38563;54.258;12.574;2022-07-03T08:28:13;27.40;99.90
13598;DHT22;38563;54.258;12.574;2022-07-03T08:30:40;27.50;99.90
13598;DHT22;38563;54.258;12.574;2022-07-03T08:33:06;27.50;99.90
13598;DHT22;38563;54.258;12.574;2022-07-03T08:35:33;27.50;99.90
13598;DHT22;38563;54.258;12.574;2022-07-03T08:38:00;27.40;99.90
13598;DHT22;38563;54.258;12.574;2022-07-03T08:40:28;27.40;99.90
13598;DHT22;38563;54.258;12.574;2022-07-03T08:42:56;27.50;99.90
13598;DHT22;38563;54.258;12.574;2022-07-03T08:45:24;27.70;99.90
13598;DHT22;38563;54.258;12.574;2022-07-03T08:47:54;27.70;99.90
13598;DHT22;38563;54.258;12.574;2022-07-03T08:50:22;27.50;99.90
13598;DHT22;38563;54.258;12.574;2022-07-03T08:52:49;27.80;99.90
13598;DHT22;38563;54.258;12.574;2022-07-03T08:55:18;28.00;99.90
13598;DHT22;38563;54.258;12.574;2022-07-03T08:57:48;28.10;99.90
13598;DHT22;38563;54.258;12.574;2022-07-03T09:00:16;28.10;99.90
13598;DHT22;38563;54.258;12.574;2022-07-03T09:02:45;28.20;99.90
13598;DHT22;38563;54.258;12.574;2022-07-03T09:05:13;28.20;99.90
13598;DHT22;38563;54.258;12.574;2022-07-03T09:07:42;28.20;99.90
13598;DHT22;38563;54.258;12.574;2022-07-03T09:10:11;28.20;99.90
13598;DHT22;38563;54.258;12.574;2022-07-03T09:12:39;28.30;99.90
13598;DHT22;38563;54.258;12.574;2022-07-03T09:15:08;28.40;99.90
13598;DHT22;38563;54.258;12.574;2022-07-03T09:17:36;28.50;99.90
13598;DHT22;38563;54.258;12.574;2022-07-03T09:20:05;28.50;99.90
13598;DHT22;38563;54.258;12.574;2022-07-03T09:22:33;28.50;99.90
13598;DHT22;38563;54.258;12.574;2022-07-03T09:25:04;28.70;99.90
13598;DHT22;38563;54.258;12.574;2022-07-03T09:27:32;28.90;99.90
13598;DHT22;38563;54.258;12.574;2022-07-03T09:30:01;28.80;99.90
13598;DHT22;38563;54.258;12.574;2022-07-03T09:32:41;28.60;99.90
13598;DHT22;38563;54.258;12.574;2022-07-03T09:35:16;28.80;99.90
13598;DHT22;38563;54.258;12.574;2022-07-03T09:37:51;28.90;99.90
13598;DHT22;38563;54.258;12.574;2022-07-03T09:40:19;28.80;99.90
13598;DHT22;38563;54.258;12.574;2022-07-03T09:43:02;29.00;99.90
13598;DHT22;38563;54.258;12.574;2022-07-03T09:45:50;29.10;99.90
13598;DHT22;38563;54.258;12.574;2022-07-03T09:48:27;29.10;99.90
13598;DHT22;38563;54.258;12.574;2022-07-03T09:51:12;29.20;99.90
13598;DHT22;38563;54.258;12.574;2022-07-03T09:53:47;29.10;99.90
13598;DHT22;38563;54.258;12.574;2022-07-03T09:56:14;28.90;99.90
13598;DHT22;38563;54.258;12.574;2022-07-03T09:59:02;28.60;99.90
13598;DHT22;38563;54.258;12.574;2022-07-03T10:01:29;28.60;99.90
13598;DHT22;38563;54.258;12.574;2022-07-03T10:04:09;28.60;99.90
13598;DHT22;38563;54.258;12.574;2022-07-03T10:06:49;28.70;99.90
13598;DHT22;38563;54.258;12.574;2022-07-03T10:09:17;29.10;99.90
13598;DHT22;38563;54.258;12.574;2022-07-03T10:11:44;29.20;99.90
13598;DHT22;38563;54.258;12.574;2022-07-03T10:14:14;29.30;99.90
13598;DHT22;38563;54.258;12.574;2022-07-03T10:16:41;29.20;99.90
13598;DHT22;38563;54.258;12.574;2022-07-03T10:19:13;28.90;99.90
13598;DHT22;38563;54.258;12.574;2022-07-03T10:21:42;28.40;99.90
13598;DHT22;38563;54.258;12.574;2022-07-03T10:24:10;27.90;99.90
13598;DHT22;38563;54.258;12.574;2022-07-03T10:26:39;27.80;99.90
13598;DHT22;38563;54.258;12.574;2022-07-03T10:29:07;27.30;99.90
13598;DHT22;38563;54.258;12.574;2022-07-03T10:31:36;26.80;99.90
13598;DHT22;38563;54.258;12.574;2022-07-03T10:34:04;26.60;99.90
13598;DHT22;38563;54.258;12.574;2022-07-03T10:36:34;27.00;99.90
13598;DHT22;38563;54.258;12.574;2022-07-03T10:39:05;27.30;99.90
13598;DHT22;38563;54.258;12.574;2022-07-03T10:41:34;27.70;99.90
13598;DHT22;38563;54.258;12.574;2022-07-03T10:44:21;28.10;99.90
13598;DHT22;38563;54.258;12.574;2022-07-03T10:47:05;28.30;99.90
13598;DHT22;38563;54.258;12.574;2022-07-03T10:49:32;28.40;99.90
13598;DHT22;38563;54.258;12.574;2022-07-03T10:52:01;28.90;99.90
13598;DHT22;38563;54.258;12.574;2022-07-03T10:54:30;29.00;99.90
13598;DHT22;38563;54.258;12.574;2022-07-03T10:57:09;29.20;99.90
13598;DHT22;38563;54.258;12.574;2022-07-03T11:02:50;29.20;99.90
13598;DHT22;38563;54.258;12.574;2022-07-03T11:05:22;29.20;99.90
13598;DHT22;38563;54.258;12.574;2022-07-03T11:08:09;29.30;99.90
13598;DHT22;38563;54.258;12.574;2022-07-03T11:10:38;29.10;99.90
13598;DHT22;38563;54.258;12.574;2022-07-03T11:13:11;28.70;99.90
13598;DHT22;38563;54.258;12.574;2022-07-03T11:15:44;28.60;99.90
13598;DHT22;38563;54.258;12.574;2022-07-03T11:18:26;29.10;99.90
13598;DHT22;38563;54.258;12.574;2022-07-03T11:21:26;29.60;99.90
13598;DHT22;38563;54.258;12.574;2022-07-03T11:24:30;30.40;99.90
13598;DHT22;38563;54.258;12.574;2022-07-03T11:27:33;30.40;99.90
13598;DHT22;38563;54.258;12.574;2022-07-03T11:30:00;30.10;99.90
13598;DHT22;38563;54.258;12.574;2022-07-03T11:32:51;30.10;99.90
13598;DHT22;38563;54.258;12.574;2022-07-03T11:35:49;30.00;99.90
13598;DHT22;38563;54.258;12.574;2022-07-03T11:38:29;29.50;99.90
13598;DHT22;38563;54.258;12.574;2022-07-03T11:40:59;28.80;99.90
13598;DHT22;38563;54.258;12.574;2022-07-03T11:43:26;28.60;99.90
13598;DHT22;38563;54.258;12.574;2022-07-03T11:45:53;28.40;99.90
13598;DHT22;38563;54.258;12.574;2022-07-03T11:48:21;28.40;99.90
13598;DHT22;38563;54.258;12.574;2022-07-03T11:50:49;28.90;99.90
13598;DHT22;38563;54.258;12.574;2022-07-03T11:53:22;29.20;99.90
13598;DHT22;38563;54.258;12.574;2022-07-03T11:55:50;29.70;99.90
13598;DHT22;38563;54.258;12.574;2022-07-03T11:58:19;29.70;99.90
13598;DHT22;38563;54.258;12.574;2022-07-03T12:00:46;29.80;99.90
13598;DHT22;38563;54.258;12.574;2022-07-03T12:03:21;29.80;99.90
13598;DHT22;38563;54.258;12.574;2022-07-03T12:05:53;29.70;99.90
13598;DHT22;38563;54.258;12.574;2022-07-03T12:08:27;29.30;99.90
13598;DHT22;38563;54.258;12.574;2022-07-03T12:11:06;29.10;99.90
13598;DHT22;38563;54.258;12.574;2022-07-03T12:13:35;29.10;99.90
13598;DHT22;38563;54.258;12.574;2022-07-03T12:16:04;29.10;99.90
13598;DHT22;38563;54.258;12.574;2022-07-03T12:18:42;29.20;99.90
13598;DHT22;38563;54.258;12.574;2022-07-03T12:21:08;29.30;99.90
13598;DHT22;38563;54.258;12.574;2022-07-03T12:23:41;29.80;99.90
13598;DHT22;38563;54.258;12.574;2022-07-03T12:26:08;30.20;99.90
13598;DHT22;38563;54.258;12.574;2022-07-03T12:28:37;30.50;99.90
13598;DHT22;38563;54.258;12.574;2022-07-03T12:31:04;30.50;99.90
13598;DHT22;38563;54.258;12.574;2022-07-03T12:33:32;30.50;99.90
13598;DHT22;38563;54.258;12.574;2022-07-03T12:36:05;30.60;99.90
13598;DHT22;38563;54.258;12.574;2022-07-03T12:38:32;30.60;99.90
13598;DHT22;38563;54.258;12.574;2022-07-03T12:41:04;30.70;99.90
13598;DHT22;38563;54.258;12.574;2022-07-03T12:43:38;30.80;99.90
13598;DHT22;38563;54.258;12.574;2022-07-03T12:46:21;30.90;99.90
13598;DHT22;38563;54.258;12.574;2022-07-03T12:48:49;30.90;99.90
13598;DHT22;38563;54.258;12.574;2022-07-03T12:53:59;31.20;99.90
13598;DHT22;38563;54.258;12.574;2022-07-03T12:56:25;31.00;99.90
13598;DHT22;38563;54.258;12.574;2022-07-03T12:58:53;30.70;99.90
13598;DHT22;38563;54.258;12.574;2022-07-03T13:01:37;30.10;99.90
13598;DHT22;38563;54.258;12.574;2022-07-03T13:04:05;29.90;99.90
13598;DHT22;38563;54.258;12.574;2022-07-03T13:06:34;30.00;99.90
13598;DHT22;38563;54.258;12.574;2022-07-03T13:09:02;30.30;99.90
13598;DHT22;38563;54.258;12.574;2022-07-03T13:11:31;30.90;99.90
13598;DHT22;38563;54.258;12.574;2022-07-03T13:14:08;31.20;99.90
13598;DHT22;38563;54.258;12.574;2022-07-03T13:16:37;30.80;99.90
13598;DHT22;38563;54.258;12.574;2022-07-03T13:19:05;30.10;99.90
13598;DHT22;38563;54.258;12.574;2022-07-03T13:21:32;29.60;99.90
13598;DHT22;38563;54.258;12.574;2022-07-03T13:23:59;29.10;99.90
13598;DHT22;38563;54.258;12.574;2022-07-03T13:26:26;28.70;99.90
13598;DHT22;38563;54.258;12.574;2022-07-03T13:28:53;28.50;99.90
13598;DHT22;38563;54.258;12.574;2022-07-03T13:31:21;28.30;99.90
13598;DHT22;38563;54.258;12.574;2022-07-03T13:33:48;28.20;99.90
13598;DHT22;38563;54.258;12.574;2022-07-03T13:36:15;28.30;99.90
13598;DHT22;38563;54.258;12.574;2022-07-03T13:38:43;28.40;99.90
13598;DHT22;38563;54.258;12.574;2022-07-03T13:41:10;28.60;99.90
13598;DHT22;38563;54.258;12.574;2022-07-03T13:43:37;28.90;99.90
13598;DHT22;38563;54.258;12.574;2022-07-03T13:46:03;29.70;99.90
13598;DHT22;38563;54.258;12.574;2022-07-03T13:48:31;30.60;99.90
13598;DHT22;38563;54.258;12.574;2022-07-03T13:50:58;31.30;99.90
13598;DHT22;38563;54.258;12.574;2022-07-03T13:53:25;32.10;99.90
13598;DHT22;38563;54.258;12.574;2022-07-03T13:55:54;32.70;99.90
13598;DHT22;38563;54.258;12.574;2022-07-03T13:58:21;32.70;99.90
13598;DHT22;38563;54.258;12.574;2022-07-03T14:00:47;32.80;99.90
13598;DHT22;38563;54.258;12.574;2022-07-03T14:03:14;33.00;99.90
13598;DHT22;38563;54.258;12.574;2022-07-03T14:05:42;33.20;99.90
13598;DHT22;38563;54.258;12.574;2022-07-03T14:08:09;33.30;99.90
13598;DHT22;38563;54.258;12.574;2022-07-03T14:10:37;33.40;99.90
13598;DHT22;38563;54.258;12.574;2022-07-03T14:13:04;33.30;99.90
13598;DHT22;38563;54.258;12.574;2022-07-03T14:15:30;33.20;99.90
13598;DHT22;38563;54.258;12.574;2022-07-03T14:17:59;33.10;99.90
13598;DHT22;38563;54.258;12.574;2022-07-03T14:20:27;33.40;99.90
13598;DHT22;38563;54.258;12.574;2022-07-03T14:22:55;33.10;99.90
13598;DHT22;38563;54.258;12.574;2022-07-03T14:25:22;33.10;99.90
13598;DHT22;38563;54.258;12.574;2022-07-03T14:27:49;33.30;99.90
13598;DHT22;38563;54.258;12.574;2022-07-03T14:30:33;33.70;99.90
13598;DHT22;38563;54.258;12.574;2022-07-03T14:33:17;33.70;99.90
13598;DHT22;38563;54.258;12.574;2022-07-03T14:35:44;33.60;99.90
13598;DHT22;38563;54.258;12.574;2022-07-03T14:38:12;33.20;99.90
13598;DHT22;38563;54.258;12.574;2022-07-03T14:40:39;32.30;99.90
13598;DHT22;38563;54.258;12.574;2022-07-03T14:43:06;31.30;99.90
13598;DHT22;38563;54.258;12.574;2022-07-03T14:45:33;30.70;99.90
13598;DHT22;38563;54.258;12.574;2022-07-03T14:47:59;30.90;99.90
13598;DHT22;38563;54.258;12.574;2022-07-03T14:50:26;30.80;99.90
13598;DHT22;38563;54.258;12.574;2022-07-03T14:52:53;30.40;99.90
13598;DHT22;38563;54.258;12.574;2022-07-03T14:55:21;30.00;99.90
13598;DHT22;38563;54.258;12.574;2022-07-03T14:57:54;30.00;99.90
13598;DHT22;38563;54.258;12.574;2022-07-03T15:00:26;29.80;99.90
13598;DHT22;38563;54.258;12.574;2022-07-03T15:03:04;29.30;99.90
13598;DHT22;38563;54.258;12.574;2022-07-03T15:05:32;28.90;99.90
13598;DHT22;38563;54.258;12.574;2022-07-03T15:08:04;28.30;99.90
13598;DHT22;38563;54.258;12.574;2022-07-03T15:10:33;27.90;99.90
13598;DHT22;38563;54.258;12.574;2022-07-03T15:13:03;27.50;99.90
13598;DHT22;38563;54.258;12.574;2022-07-03T15:15:31;27.30;99.90
13598;DHT22;38563;54.258;12.574;2022-07-03T15:17:59;27.20;99.90
13598;DHT22;38563;54.258;12.574;2022-07-03T15:20:30;26.70;99.90
13598;DHT22;38563;54.258;12.574;2022-07-03T15:22:59;26.20;99.90
13598;DHT22;38563;54.258;12.574;2022-07-03T15:25:28;25.90;99.90
13598;DHT22;38563;54.258;12.574;2022-07-03T15:27:57;25.60;99.90
13598;DHT22;38563;54.258;12.574;2022-07-03T15:30:25;25.50;99.90
13598;DHT22;38563;54.258;12.574;2022-07-03T15:32:53;25.60;99.90
13598;DHT22;38563;54.258;12.574;2022-07-03T15:35:22;25.90;99.90
13598;DHT22;38563;54.258;12.574;2022-07-03T15:37:59;26.60;99.90
13598;DHT22;38563;54.258;12.574;2022-07-03T15:40:31;27.60;99.90
13598;DHT22;38563;54.258;12.574;2022-07-03T15:43:27;27.70;99.90